Alstead, New Hampshire
Current Conditions -  °F | °C
As of 1:54 PM on Thursday 30 Oct 2014 (Local Time) from KVSF Reporting Station
Overcast Overcast  
Wind Chill: 55°   Ceiling: 6000
Heat Index: 55°   Visibility: 10mi
Dew Point: 34°   Wind: 6mph
Humidity: 45%   Direction: NA
Pressure: 29.92"   Gusts: NA
Location:  43.15°N, 72.36°W
Report Text: KVSF 301754Z AUTO VRB05KT 10SM SCT045 OVC060 13/01 A2992 RMK AO2 SLP136 T01280011 10128 20028 58006
Loading
Personal Weather Stations






























Interactive Weather Map
Tropical Storm Tracking
New forecast layout! Learn more

10-Day Weather Forecast

Advertisements
Track Severe Weather on mobile